12°C Temp
7°C Rocío
72% Humedad
Temperatura
8 KM/H
5 MPH
4 KTS
270°
Oeste

Viento
Poco Nuboso
Presión 1024.92 (hPa) - 30.27 (in)
Visibilidad 6.2 (mi) - 10.0 (km)

Condiciones Actuales
LEZL
Distancia 8(km)
Metar :LEZL 291930Z 27004KT 9999 FEW049 12/07 Q1025 NOSIG
29-11-2021 20:30:00

Aeropuerto
  Metar Datos API de Aviación proporcionados por https://www.checkwx.com/ PHP scripts por weather34.com Modificados por tiempoensevilla.es ©2021